Time;durP1;ratioP1;P1;durP2;ratioP2;P2;SDS_P1;SDS_P2;PMS_P1;PMS_P2;Temp;Humidity;BMP_temperature;BMP_pressure;BME280_temperature;BME280_humidity;BME280_pressure;Samples;Min_cycle;Max_cycle;Signal;HPM_P1;HPM_P2
2022/03/25 00:02:20;;;;;;;16.45;4.30;;;;;;;7.74;38.38;100102.19;4232339;33;33641;-73
2022/03/25 00:04:48;;;;;;;7.85;3.75;;;;;;;8.37;37.06;100103.78;4232834;33;34787;-73
2022/03/25 00:07:16;;;;;;;9.38;3.22;;;;;;;7.17;39.75;100097.94;4230550;33;35738;-73
2022/03/25 00:09:44;;;;;;;8.15;3.58;;;;;;;7.39;38.89;100104.28;4232908;33;34558;-73
2022/03/25 00:12:12;;;;;;;8.88;4.12;;;;;;;7.35;38.65;100103.38;4232075;33;33567;-73
2022/03/25 00:14:40;;;;;;;10.80;3.83;;;;;;;6.83;40.32;100102.56;4232774;33;34072;-73
2022/03/25 00:17:08;;;;;;;8.82;3.70;;;;;;;7.57;38.86;100098.47;4231952;33;35870;-72
2022/03/25 00:19:36;;;;;;;9.27;4.00;;;;;;;7.52;38.84;100100.16;4230167;33;35092;-72
2022/03/25 00:22:04;;;;;;;7.12;3.62;;;;;;;7.28;39.45;100092.91;4232302;33;34258;-73
2022/03/25 00:24:32;;;;;;;9.55;4.18;;;;;;;5.51;43.08;100101.72;4217500;33;33897;-72
2022/03/25 00:27:00;;;;;;;9.75;4.40;;;;;;;5.93;41.81;100093.97;4232512;33;34826;-72
2022/03/25 00:29:28;;;;;;;6.95;3.83;;;;;;;5.64;43.83;100099.41;4232573;33;32918;-73
2022/03/25 00:31:56;;;;;;;8.27;4.55;;;;;;;5.95;42.54;100102.63;4232596;33;33760;-73
2022/03/25 00:34:24;;;;;;;9.95;4.35;;;;;;;5.73;44.00;100102.19;4231728;33;33980;-73
2022/03/25 00:36:52;;;;;;;8.38;3.75;;;;;;;6.10;43.62;100105.56;4232449;33;35167;-73
2022/03/25 00:39:19;;;;;;;8.93;4.25;;;;;;;5.66;44.46;100105.47;4231086;33;34496;-73
2022/03/25 00:41:48;;;;;;;6.40;3.53;;;;;;;6.10;43.20;100102.09;4231749;33;33225;-72
2022/03/25 00:44:18;;;;;;;11.65;4.82;;;;;;;6.24;42.23;100093.75;4231763;33;34802;-73
2022/03/25 00:46:46;;;;;;;12.80;5.78;;;;;;;6.13;42.39;100097.00;4232278;33;35252;-72
2022/03/25 00:49:14;;;;;;;7.82;4.20;;;;;;;6.23;41.66;100097.19;4231669;33;34598;-72
2022/03/25 00:51:42;;;;;;;14.00;5.75;;;;;;;5.95;42.02;100094.87;4232196;33;33420;-72
2022/03/25 00:54:10;;;;;;;9.75;4.47;;;;;;;5.53;42.98;100106.94;4231562;33;34711;-72
2022/03/25 00:56:39;;;;;;;8.10;4.15;;;;;;;5.81;42.74;100095.47;4232252;33;35912;-73
2022/03/25 00:59:08;;;;;;;8.82;4.37;;;;;;;6.21;41.87;100098.91;4231449;33;34415;-73
2022/03/25 01:01:37;;;;;;;9.52;4.03;;;;;;;5.95;42.25;100102.63;4241980;33;33724;-72
2022/03/25 01:04:07;;;;;;;9.18;4.10;;;;;;;5.56;42.86;100093.19;4231363;33;34751;-72
2022/03/25 01:06:35;;;;;;;9.73;4.47;;;;;;;5.57;42.90;100103.56;4230712;33;34902;-72
2022/03/25 01:09:04;;;;;;;6.37;3.42;;;;;;;5.44;43.69;100105.00;4233314;33;34374;-73
2022/03/25 01:11:35;;;;;;;10.13;3.92;;;;;;;5.71;42.92;100098.69;4234171;33;33685;-73
2022/03/25 01:14:04;;;;;;;10.27;4.22;;;;;;;5.05;43.51;100100.69;4233079;33;34500;-73
2022/03/25 01:16:32;;;;;;;9.27;3.90;;;;;;;4.49;45.17;100105.31;4234299;33;34811;-72
2022/03/25 01:19:00;;;;;;;10.10;4.22;;;;;;;5.11;44.51;100089.62;4233380;33;35251;-72
2022/03/25 01:21:28;;;;;;;8.82;4.32;;;;;;;4.97;45.30;100102.19;4233063;33;33686;-72
2022/03/25 01:23:57;;;;;;;9.82;3.85;;;;;;;4.81;45.21;100095.78;4232231;33;34738;-72
2022/03/25 01:26:25;;;;;;;9.88;3.58;;;;;;;4.67;45.95;100092.88;4232719;33;35214;-72
2022/03/25 01:28:53;;;;;;;21.08;4.03;;;;;;;4.67;45.29;100095.44;4233385;33;34364;-72
2022/03/25 01:31:21;;;;;;;11.73;4.45;;;;;;;4.47;45.67;100094.06;4233941;33;33581;-72
2022/03/25 01:33:50;;;;;;;6.18;3.35;;;;;;;4.29;46.47;100089.28;4233256;33;34855;-72
2022/03/25 01:36:19;;;;;;;8.15;3.10;;;;;;;4.14;46.12;100094.91;4233252;33;35188;-72
2022/03/25 01:38:46;;;;;;;9.45;4.35;;;;;;;3.66;47.55;100110.75;4233207;33;35330;-71
2022/03/25 01:41:16;;;;;;;12.27;4.62;;;;;;;3.23;50.80;100106.03;4228659;33;155024;-73
2022/03/25 01:43:56;;;;;;;8.75;4.32;;;;;;;4.01;48.88;100104.03;4231997;33;33903;-72
2022/03/25 01:46:24;;;;;;;8.55;3.00;;;;;;;4.19;47.35;100106.22;4232834;33;35058;-72
2022/03/25 01:48:53;;;;;;;13.48;4.12;;;;;;;3.97;47.25;100113.38;4232037;33;35379;-71
2022/03/25 01:51:29;;;;;;;7.82;3.78;;;;;;;3.00;50.80;100109.56;4234087;33;33488;-72
2022/03/25 01:54:23;;;;;;;12.68;3.78;;;;;;;3.54;48.84;100109.53;4243073;33;33907;-72
2022/03/25 01:56:55;;;;;;;8.45;3.97;;;;;;;2.98;50.90;100113.78;4243982;33;35848;-72
2022/03/25 01:59:24;;;;;;;11.70;4.75;;;;;;;3.36;48.77;100112.41;4243779;33;35189;-72
2022/03/25 02:01:56;;;;;;;7.32;3.65;;;;;;;3.34;48.59;100118.37;4233951;33;33496;-72
2022/03/25 02:04:25;;;;;;;8.68;4.35;;;;;;;3.24;50.03;100119.75;4233223;33;33843;-72
2022/03/25 02:06:55;;;;;;;6.00;3.28;;;;;;;3.04;51.89;100117.44;4233484;33;34990;-72
2022/03/25 02:09:25;;;;;;;5.72;3.20;;;;;;;3.72;49.90;100116.06;4233065;33;35254;-72
2022/03/25 02:11:55;;;;;;;8.07;3.50;;;;;;;3.42;49.50;100115.19;4232979;33;33551;-73
2022/03/25 02:14:23;;;;;;;7.35;3.55;;;;;;;3.34;48.94;100113.22;4243324;33;33938;-72
2022/03/25 02:16:51;;;;;;;6.65;3.17;;;;;;;3.19;51.14;100113.59;4233717;33;35819;-72
2022/03/25 02:19:24;;;;;;;10.75;4.07;;;;;;;3.20;50.73;100113.66;4232169;33;34491;-72
2022/03/25 02:21:52;;;;;;;8.80;4.05;;;;;;;3.47;50.32;100119.59;4233894;33;33201;-71
2022/03/25 02:24:21;;;;;;;8.48;3.80;;;;;;;3.34;51.46;100123.50;4233192;33;34810;-72
2022/03/25 02:26:50;;;;;;;8.32;3.87;;;;;;;3.48;50.40;100127.38;4233588;33;35053;-72
2022/03/25 02:29:18;;;;;;;8.80;4.35;;;;;;;3.51;50.43;100130.06;4232022;33;34632;-72
2022/03/25 02:31:47;;;;;;;7.93;3.22;;;;;;;3.09;50.89;100127.88;4233223;33;33542;-73
2022/03/25 02:34:15;;;;;;;11.73;5.55;;;;;;;3.26;50.93;100127.53;4232165;33;33936;-72
2022/03/25 02:36:44;;;;;;;8.68;3.80;;;;;;;2.87;53.57;100126.31;4233645;33;35556;-72
2022/03/25 02:39:14;;;;;;;8.63;4.20;;;;;;;3.09;51.67;100127.88;4232479;33;34419;-72
2022/03/25 02:41:43;;;;;;;11.32;4.43;;;;;;;3.40;51.05;100128.84;4232569;33;33596;-73
2022/03/25 02:44:11;;;;;;;11.07;3.72;;;;;;;2.80;53.73;100143.22;4232905;33;34656;-72
2022/03/25 02:46:42;;;;;;;9.35;3.72;;;;;;;2.97;53.91;100143.78;4232913;33;35105;-73
2022/03/25 02:49:11;;;;;;;10.27;4.68;;;;;;;3.70;50.71;100138.31;4232794;33;34466;-72
2022/03/25 02:51:39;;;;;;;8.30;4.25;;;;;;;3.77;51.14;100147.97;4232898;33;33573;-72
2022/03/25 02:54:07;;;;;;;8.32;4.20;;;;;;;3.50;52.10;100145.47;4231861;33;33935;-72
2022/03/25 02:56:35;;;;;;;12.93;3.85;;;;;;;3.67;51.14;100148.53;4233432;33;35153;-72
2022/03/25 02:59:02;;;;;;;10.27;4.35;;;;;;;3.64;50.97;100158.75;4232573;33;35211;-71
2022/03/25 03:01:31;;;;;;;9.55;4.35;;;;;;;3.22;52.42;100166.03;4233662;33;33681;-73
2022/03/25 03:03:59;;;;;;;8.85;3.90;;;;;;;3.30;51.90;100166.31;4232438;33;33414;-72
2022/03/25 03:06:27;;;;;;;10.48;4.28;;;;;;;3.94;50.15;100164.81;4233192;33;35904;-72
2022/03/25 03:08:56;;;;;;;7.87;4.00;;;;;;;3.65;50.49;100160.50;4232871;33;34710;-72
2022/03/25 03:11:24;;;;;;;12.10;3.70;;;;;;;3.17;51.69;100162.44;4232355;33;33414;-72
2022/03/25 03:13:52;;;;;;;9.90;4.80;;;;;;;3.63;50.67;100159.56;4243093;33;34636;-72
2022/03/25 03:16:20;;;;;;;8.02;3.85;;;;;;;3.80;50.28;100159.25;4233482;33;35860;-72
2022/03/25 03:18:48;;;;;;;8.90;3.90;;;;;;;3.89;49.79;100166.37;4232637;33;34462;-72
2022/03/25 03:21:17;;;;;;;9.60;4.28;;;;;;;3.77;50.02;100161.72;4233307;33;33304;-72
2022/03/25 03:23:45;;;;;;;13.07;4.50;;;;;;;3.34;50.91;100157.84;4231002;33;34000;-73
2022/03/25 03:26:13;;;;;;;9.30;4.68;;;;;;;3.47;50.84;100166.81;4233170;33;35092;-72
2022/03/25 03:28:41;;;;;;;8.60;4.43;;;;;;;3.44;50.83;100158.13;4232650;33;34447;-72
2022/03/25 03:31:09;;;;;;;8.90;4.05;;;;;;;2.96;52.30;100166.88;4232226;33;34331;-72
2022/03/25 03:33:37;;;;;;;9.52;4.65;;;;;;;2.93;52.67;100167.69;4231606;33;34113;-72
2022/03/25 03:36:05;;;;;;;10.48;4.43;;;;;;;2.12;54.84;100170.84;4233259;33;34915;-72
2022/03/25 03:38:34;;;;;;;7.70;4.57;;;;;;;1.83;56.52;100164.62;4232450;33;34441;-72
2022/03/25 03:41:02;;;;;;;7.65;4.10;;;;;;;1.45;57.41;100171.75;4232163;33;33108;-72
2022/03/25 03:43:30;;;;;;;8.00;4.12;;;;;;;2.52;55.05;100166.25;4232548;33;33838;-72
2022/03/25 03:45:58;;;;;;;10.45;4.28;;;;;;;2.96;53.87;100162.63;4233126;33;35107;-72
2022/03/25 03:48:26;;;;;;;8.48;4.30;;;;;;;2.74;53.98;100170.44;4232345;33;34399;-72
2022/03/25 03:50:54;;;;;;;8.88;4.35;;;;;;;3.07;52.87;100162.09;4233146;33;34436;-72
2022/03/25 03:53:22;;;;;;;13.82;4.87;;;;;;;2.71;53.64;100171.22;4232416;33;33899;-72
2022/03/25 03:55:49;;;;;;;11.05;5.53;;;;;;;2.54;53.81;100164.59;4232935;33;35016;-72
2022/03/25 03:58:18;;;;;;;9.07;4.35;;;;;;;2.91;53.36;100164.19;4232372;33;35347;-72
2022/03/25 04:00:46;;;;;;;9.00;4.25;;;;;;;3.39;52.60;100173.44;4231914;33;33557;-73
2022/03/25 04:03:14;;;;;;;7.78;3.80;;;;;;;3.45;52.99;100163.31;4232251;33;34609;-72
2022/03/25 04:05:44;;;;;;;10.40;4.93;;;;;;;3.50;52.15;100161.78;4232091;33;34928;-72
2022/03/25 04:08:12;;;;;;;11.68;5.20;;;;;;;3.64;52.22;100159.63;4231737;33;35331;-72
2022/03/25 04:10:40;;;;;;;11.48;4.55;;;;;;;3.87;51.83;100157.72;4231919;33;34388;-72
2022/03/25 04:13:08;;;;;;;9.93;4.87;;;;;;;3.87;51.54;100162.03;4231762;33;33910;-73
2022/03/25 04:15:36;;;;;;;8.88;4.43;;;;;;;3.92;51.63;100155.31;4232608;33;35152;-72
2022/03/25 04:18:04;;;;;;;8.13;4.70;;;;;;;3.84;51.36;100157.62;4231851;33;35253;-72
2022/03/25 04:20:32;;;;;;;9.07;4.87;;;;;;;2.76;53.74;100156.81;4232342;33;34233;-72
2022/03/25 04:23:00;;;;;;;9.85;4.65;;;;;;;2.69;54.11;100160.00;4232819;33;34651;-73
2022/03/25 04:25:29;;;;;;;13.40;5.93;;;;;;;2.70;54.70;100164.34;4232387;33;35592;-72
2022/03/25 04:27:58;;;;;;;14.95;4.50;;;;;;;3.71;52.49;100155.53;4232577;33;34616;-72
2022/03/25 04:30:32;;;;;;;12.20;5.03;;;;;;;3.80;51.97;100155.81;4232457;33;33695;-72
2022/03/25 04:33:01;;;;;;;11.10;4.68;;;;;;;3.84;52.19;100154.19;4232621;33;33947;-72
2022/03/25 04:35:32;;;;;;;9.45;4.37;;;;;;;3.76;52.12;100159.13;4232228;33;33022;-72
2022/03/25 04:38:00;;;;;;;6.37;3.95;;;;;;;3.79;51.97;100162.66;4232583;33;35220;-72
2022/03/25 04:40:29;;;;;;;10.32;4.68;;;;;;;3.83;52.32;100163.63;4230905;33;34364;-72
2022/03/25 04:42:59;;;;;;;11.25;5.37;;;;;;;3.67;52.55;100167.44;4232261;33;33948;-72
2022/03/25 04:45:28;;;;;;;12.18;5.28;;;;;;;3.01;54.51;100167.91;4233431;33;35086;-73
2022/03/25 04:47:56;;;;;;;10.57;5.15;;;;;;;3.12;54.23;100169.13;4234017;33;34163;-72
2022/03/25 04:50:25;;;;;;;11.18;5.00;;;;;;;2.96;55.16;100177.19;4233574;33;33334;-72
2022/03/25 04:52:53;;;;;;;11.52;5.43;;;;;;;3.01;55.27;100178.22;4234334;33;34759;-73
2022/03/25 04:55:21;;;;;;;13.23;5.55;;;;;;;3.91;52.56;100175.00;4233667;33;34912;-72
2022/03/25 04:57:49;;;;;;;12.52;5.75;;;;;;;4.11;51.85;100174.72;4234130;33;34428;-72
2022/03/25 05:00:17;;;;;;;11.90;5.00;;;;;;;4.23;51.26;100169.91;4233373;33;34331;-72
2022/03/25 05:02:46;;;;;;;12.98;6.05;;;;;;;4.48;50.49;100168.91;4233306;33;33946;-71
2022/03/25 05:05:15;;;;;;;14.35;5.62;;;;;;;3.92;52.86;100173.34;4243772;33;34750;-72
2022/03/25 05:07:46;;;;;;;13.35;5.12;;;;;;;3.97;53.31;100176.88;4244264;33;34676;-72
2022/03/25 05:10:15;;;;;;;10.88;5.65;;;;;;;4.16;52.40;100174.06;4232265;33;33598;-72
2022/03/25 05:12:45;;;;;;;19.62;5.32;;;;;;;4.77;51.09;100175.69;4234206;33;34865;-73
2022/03/25 05:15:13;;;;;;;14.40;5.30;;;;;;;4.91;51.09;100175.19;4243513;33;35645;-72
2022/03/25 05:17:51;;;;;;;11.20;5.68;;;;;;;5.45;49.82;100179.09;4234213;33;34386;-73
2022/03/25 05:20:20;;;;;;;9.35;4.37;;;;;;;6.28;46.86;100177.44;4242931;33;34358;-73
2022/03/25 05:22:49;;;;;;;10.23;4.85;;;;;;;7.75;43.42;100171.34;4232726;33;34775;-72
2022/03/25 05:25:18;;;;;;;11.00;5.30;;;;;;;9.42;39.96;100180.94;4232249;33;35133;-72
2022/03/25 05:27:51;;;;;;;8.95;4.20;;;;;;;9.78;38.70;100177.72;4244380;33;34412;-72
2022/03/25 05:30:22;;;;;;;30.92;6.22;;;;;;;11.09;37.60;100183.37;4229546;33;34636;-72
2022/03/25 05:32:50;;;;;;;46.50;8.13;;;;;;;10.71;37.83;100183.31;4233716;33;34776;-72
2022/03/25 05:35:19;;;;;;;14.00;4.95;;;;;;;10.54;38.23;100181.56;4232914;33;35041;-72
2022/03/25 05:37:48;;;;;;;9.45;5.05;;;;;;;10.17;38.54;100181.38;4233699;33;35334;-71
2022/03/25 05:40:17;;;;;;;9.88;3.97;;;;;;;9.41;41.50;100192.19;4233065;33;34136;-73
2022/03/25 05:42:46;;;;;;;12.40;4.37;;;;;;;9.96;40.69;100187.34;4244200;33;34456;-72
2022/03/25 05:45:14;;;;;;;14.57;4.70;;;;;;;10.29;39.65;100185.78;4243500;33;35809;-72
2022/03/25 05:47:42;;;;;;;10.73;5.40;;;;;;;9.89;42.18;100185.56;4233602;33;34341;-72
2022/03/25 05:50:11;;;;;;;11.32;5.15;;;;;;;9.48;43.29;100194.84;4231741;33;32747;-71
2022/03/25 05:52:40;;;;;;;10.05;5.15;;;;;;;9.82;42.88;100194.22;4243219;33;33891;-72
2022/03/25 05:55:09;;;;;;;18.52;5.20;;;;;;;10.09;43.63;100188.28;4243210;33;35881;-72
2022/03/25 05:57:37;;;;;;;16.70;5.90;;;;;;;10.33;44.35;100182.34;4232578;33;34463;-72
2022/03/25 06:00:08;;;;;;;25.42;6.80;;;;;;;10.78;42.66;100191.16;4232868;33;33490;-72
2022/03/25 06:02:39;;;;;;;30.45;5.85;;;;;;;10.63;42.94;100181.56;4233941;33;33884;-72
2022/03/25 06:05:08;;;;;;;11.23;5.28;;;;;;;11.09;43.37;100186.00;4232625;33;35146;-72
2022/03/25 06:07:45;;;;;;;15.60;6.15;;;;;;;11.42;41.04;100181.66;4243154;33;34356;-72
2022/03/25 06:10:14;;;;;;;11.60;5.55;;;;;;;11.84;40.01;100182.47;4243316;33;34453;-72
2022/03/25 06:12:43;;;;;;;12.13;5.85;;;;;;;11.57;39.76;100186.84;4233543;33;34037;-72
2022/03/25 06:15:11;;;;;;;13.75;6.07;;;;;;;11.16;40.08;100189.47;4232577;33;35910;-72
2022/03/25 06:17:46;;;;;;;12.80;6.07;;;;;;;11.55;37.05;100191.19;4233432;33;34364;-72
2022/03/25 06:20:17;;;;;;;12.70;7.03;;;;;;;11.94;36.37;100189.41;4232590;33;34493;-73
2022/03/25 06:22:47;;;;;;;12.30;5.28;;;;;;;12.28;36.34;100189.31;4244043;33;34835;-73
2022/03/25 06:25:16;;;;;;;13.95;5.15;;;;;;;12.45;36.60;100188.38;4232736;33;35153;-72
2022/03/25 06:27:59;;;;;;;12.37;6.15;;;;;;;12.55;35.40;100184.84;4232684;33;35287;-73
2022/03/25 06:30:34;;;;;;;11.98;5.82;;;;;;;12.85;35.27;100196.00;4232751;33;33558;-73
2022/03/25 06:33:05;;;;;;;14.10;5.87;;;;;;;13.32;33.02;100197.41;4232301;33;34101;-73
2022/03/25 06:35:33;;;;;;;11.60;5.47;;;;;;;13.55;32.20;100198.97;4243092;33;35909;-74
2022/03/25 06:38:05;;;;;;;10.20;5.87;;;;;;;13.57;31.49;100198.09;4233385;33;34413;-73
2022/03/25 06:40:32;;;;;;;23.00;11.68;;;;;;;13.45;31.71;100203.44;4242095;33;33450;-78
2022/03/25 06:43:01;;;;;;;13.65;6.40;;;;;;;14.52;31.86;100201.38;4232827;33;34064;-73
2022/03/25 06:45:30;;;;;;;12.90;6.85;;;;;;;13.92;30.28;100191.59;4242900;33;35090;-73
2022/03/25 06:47:58;;;;;;;12.63;7.40;;;;;;;14.29;30.38;100199.03;4232468;33;34455;-74
2022/03/25 06:50:27;;;;;;;13.45;6.55;;;;;;;14.66;28.12;100202.97;4231548;33;31873;-73
2022/03/25 06:52:57;;;;;;;13.20;6.97;;;;;;;15.15;27.58;100203.13;4243772;33;33953;-71
2022/03/25 06:55:26;;;;;;;12.48;6.82;;;;;;;15.22;28.21;100198.66;4231677;33;34282;-73
2022/03/25 06:57:54;;;;;;;12.32;5.85;;;;;;;15.42;27.14;100200.09;4232772;33;34549;-73
2022/03/25 07:00:24;;;;;;;12.63;6.00;;;;;;;15.85;27.09;100205.47;4232791;33;33381;-72
2022/03/25 07:02:52;;;;;;;13.75;7.00;;;;;;;15.04;28.87;100206.81;4232672;33;33981;-72
2022/03/25 07:05:21;;;;;;;13.65;6.87;;;;;;;15.28;28.05;100211.69;4232135;33;35048;-72
2022/03/25 07:07:49;;;;;;;10.55;5.97;;;;;;;14.82;27.76;100214.97;4233015;33;34492;-72
2022/03/25 07:10:22;;;;;;;18.17;6.40;;;;;;;15.64;27.68;100211.94;4232934;33;33670;-72
2022/03/25 07:12:54;;;;;;;15.38;6.85;;;;;;;15.17;27.40;100213.59;4243454;33;34060;-72
2022/03/25 07:15:23;;;;;;;13.65;7.43;;;;;;;15.02;28.24;100229.56;4242306;33;35189;-71
2022/03/25 07:17:54;;;;;;;13.15;6.70;;;;;;;15.06;27.53;100218.16;4233423;33;35236;-73
2022/03/25 07:20:25;;;;;;;16.48;7.37;;;;;;;15.54;27.02;100216.47;4242082;33;33364;-73
2022/03/25 07:22:54;;;;;;;14.63;6.25;;;;;;;15.66;28.22;100227.69;4233398;33;34930;-72
2022/03/25 07:25:22;;;;;;;12.65;6.40;;;;;;;15.61;26.83;100226.87;4232467;33;35044;-72
2022/03/25 07:27:50;;;;;;;15.55;6.95;;;;;;;15.55;27.35;100218.22;4243701;33;34295;-72
2022/03/25 07:30:18;;;;;;;13.73;6.82;;;;;;;15.94;27.42;100228.09;4231321;33;33580;-73
2022/03/25 07:32:53;;;;;;;16.77;6.87;;;;;;;15.19;28.09;100227.56;4233214;33;33926;-73
2022/03/25 07:35:21;;;;;;;15.18;7.18;;;;;;;16.07;28.41;100229.56;4232445;33;36086;-73
2022/03/25 07:37:49;;;;;;;16.45;6.60;;;;;;;16.11;27.27;100225.12;4232494;33;34448;-73
2022/03/25 07:40:17;;;;;;;12.40;6.32;;;;;;;16.64;26.98;100223.19;4232321;33;34347;-73
2022/03/25 07:42:46;;;;;;;13.32;6.05;;;;;;;16.55;26.51;100228.62;4233166;33;33571;-71
2022/03/25 07:45:15;;;;;;;15.38;6.30;;;;;;;16.97;25.62;100235.66;4232426;33;35142;-73
2022/03/25 07:47:45;;;;;;;14.60;6.93;;;;;;;16.79;27.19;100237.75;4243397;33;34381;-70
2022/03/25 07:50:15;;;;;;;13.18;6.30;;;;;;;16.11;26.69;100233.00;4242143;33;32598;-72
2022/03/25 07:52:44;;;;;;;13.00;5.97;;;;;;;17.01;26.67;100238.19;4233172;33;35343;-70
2022/03/25 07:55:13;;;;;;;15.15;6.20;;;;;;;17.22;25.43;100230.66;4231562;33;35162;-71
2022/03/25 07:57:41;;;;;;;10.85;5.57;;;;;;;17.21;27.02;100240.34;4231873;33;34481;-70
2022/03/25 08:00:13;;;;;;;18.58;6.45;;;;;;;16.73;25.96;100230.00;4232197;33;33573;-70
2022/03/25 08:02:43;;;;;;;12.45;6.22;;;;;;;15.93;26.12;100226.34;4233080;33;33969;-71
2022/03/25 08:05:13;;;;;;;17.37;6.57;;;;;;;16.43;26.85;100237.66;4232166;33;34331;-72
2022/03/25 08:07:43;;;;;;;14.48;6.90;;;;;;;17.16;26.64;100236.09;4232720;33;34831;-71
2022/03/25 08:10:11;;;;;;;12.13;6.25;;;;;;;17.62;24.82;100235.81;4231849;33;33149;-71
2022/03/25 08:12:40;;;;;;;10.73;6.45;;;;;;;16.43;26.30;100231.50;4232822;33;33991;-71
2022/03/25 08:15:08;;;;;;;17.17;6.03;;;;;;;17.19;26.16;100234.25;4231944;33;35013;-71
2022/03/25 08:17:57;;;;;;;8.82;5.47;;;;;;;17.65;25.59;100241.91;4231995;33;33072;-71
2022/03/25 08:20:39;;;;;;;13.30;5.85;;;;;;;17.31;25.24;100237.47;4233905;33;33445;-71
2022/03/25 08:23:12;;;;;;;15.13;5.60;;;;;;;17.10;25.41;100234.47;4234371;33;34006;-71
2022/03/25 08:28:27;;;;;;;15.05;6.40;;;;;;;18.61;25.44;100227.88;4234550;33;34528;-70
2022/03/25 08:31:01;;;;;;;9.90;5.35;;;;;;;17.44;24.73;100231.03;4233855;33;33439;-71
2022/03/25 08:33:29;;;;;;;12.23;5.32;;;;;;;17.87;24.57;100231.72;4233671;33;34892;-70
2022/03/25 08:35:57;;;;;;;9.75;5.45;;;;;;;17.65;24.97;100239.28;4244057;33;35044;-72
2022/03/25 08:38:25;;;;;;;11.88;5.18;;;;;;;17.79;24.59;100232.78;4234388;33;34473;-71
2022/03/25 08:40:53;;;;;;;13.77;5.45;;;;;;;17.36;24.56;100233.84;4243993;33;34382;-71
2022/03/25 08:43:36;;;;;;;13.90;5.55;;;;;;;17.56;24.85;100236.00;4233620;33;33906;-70
2022/03/25 08:46:05;;;;;;;15.85;5.62;;;;;;;17.82;24.09;100239.72;4232371;33;35903;-71
2022/03/25 08:48:33;;;;;;;9.73;5.35;;;;;;;18.79;23.93;100231.75;4232383;33;34624;-72
2022/03/25 08:51:01;;;;;;;13.25;5.85;;;;;;;19.25;23.57;100232.12;4233552;33;34368;-70
2022/03/25 08:53:30;;;;;;;11.18;6.40;;;;;;;19.21;23.42;100241.06;4234258;33;34086;-70
2022/03/25 08:56:28;;;;;;;12.30;6.03;;;;;;;19.38;23.16;100238.75;4568155;28;35018;31
2022/03/25 08:58:58;;;;;;;15.75;5.45;;;;;;;18.52;23.61;100238.72;4243444;33;32767;-96
2022/03/25 09:01:27;;;;;;;14.07;6.28;;;;;;;18.75;22.89;100230.97;4228208;33;32794;-96
2022/03/25 09:03:55;;;;;;;17.62;6.22;;;;;;;19.17;22.12;100236.81;4232288;33;32506;-96
2022/03/25 09:06:23;;;;;;;14.75;6.22;;;;;;;18.98;22.91;100226.81;4249235;33;34894;-96
2022/03/25 09:08:51;;;;;;;10.98;5.32;;;;;;;19.56;22.29;100233.78;4249030;33;35347;-96
2022/03/25 09:11:22;;;;;;;18.98;6.97;;;;;;;18.94;22.44;100225.19;4228610;33;35130;-96
2022/03/25 09:13:51;;;;;;;13.13;6.03;;;;;;;19.44;22.41;100224.47;4233739;33;34105;-95
2022/03/25 09:16:19;;;;;;;10.98;5.78;;;;;;;19.84;22.12;100231.06;4234839;33;35022;-95
2022/03/25 09:18:47;;;;;;;15.10;7.47;;;;;;;19.82;21.89;100223.19;4234692;33;34054;-96
2022/03/25 09:21:15;;;;;;;14.10;6.30;;;;;;;19.52;22.02;100228.59;4236174;33;33290;-96
2022/03/25 09:23:43;;;;;;;11.07;5.53;;;;;;;20.31;22.05;100223.19;4236465;33;34280;-95
2022/03/25 09:26:11;;;;;;;17.25;6.50;;;;;;;20.61;21.30;100230.91;4232117;33;34887;-95
2022/03/25 09:28:40;;;;;;;13.65;6.40;;;;;;;20.24;21.14;100227.00;4244443;33;34436;-94
2022/03/25 09:31:08;;;;;;;11.20;6.22;;;;;;;20.35;21.34;100234.56;4231715;33;32600;-93
2022/03/25 09:33:36;;;;;;;14.82;6.75;;;;;;;21.42;20.34;100226.00;4221099;33;33592;-96
2022/03/25 09:36:05;;;;;;;12.90;6.78;;;;;;;20.00;21.95;100231.41;4232519;33;35025;-95
2022/03/25 09:38:33;;;;;;;12.25;6.45;;;;;;;20.52;22.61;100210.09;4221168;33;34152;-96
2022/03/25 09:41:05;;;;;;;11.73;6.37;;;;;;;20.95;21.15;100213.78;4232746;33;33528;-93
2022/03/25 09:43:37;;;;;;;16.00;6.05;;;;;;;21.03;21.44;100227.56;4244289;33;33999;-94
2022/03/25 09:46:06;;;;;;;14.45;6.82;;;;;;;20.90;21.12;100216.59;4232529;33;33891;-96
2022/03/25 09:48:35;;;;;;;15.77;7.03;;;;;;;21.46;20.73;100227.63;4244643;33;34491;-95
2022/03/25 09:51:23;;;;;;;12.85;5.82;;;;;;;21.39;20.26;100217.28;4242051;33;33181;-95
2022/03/25 09:53:51;;;;;;;12.88;7.28;;;;;;;21.45;20.08;100223.25;4244703;33;33919;-94
2022/03/25 09:56:19;;;;;;;12.60;6.78;;;;;;;21.36;20.92;100224.47;4223808;33;34303;-95
2022/03/25 09:58:48;;;;;;;15.68;7.03;;;;;;;21.83;20.09;100219.00;4220174;34;34518;-94
2022/03/25 10:01:17;;;;;;;12.45;6.72;;;;;;;21.68;21.10;100206.41;4238665;33;34376;-94
2022/03/25 10:03:45;;;;;;;20.02;7.07;;;;;;;21.35;20.73;100206.84;4234069;33;33515;-94
2022/03/25 10:06:15;;;;;;;14.70;6.72;;;;;;;21.66;20.92;100206.47;4233416;33;34963;-93
2022/03/25 10:08:55;;;;;;;14.57;6.32;;;;;;;22.05;20.93;100202.13;4232950;33;34200;-94
2022/03/25 10:11:27;;;;;;;15.77;7.00;;;;;;;23.10;19.90;100190.19;4232545;33;33560;-96
2022/03/25 10:17:24;;;;;;;12.63;6.97;;;;;;;22.21;20.55;100181.09;4124303;31;20098;-66
2022/03/25 10:19:52;;;;;;;14.05;6.30;;;;;;;22.26;19.64;100177.28;4217937;33;34340;-66
2022/03/25 10:22:20;;;;;;;15.32;7.10;;;;;;;22.20;19.24;100169.63;4219056;33;33605;-66
2022/03/25 10:24:52;;;;;;;15.10;6.22;;;;;;;22.65;19.16;100172.87;4219895;34;33945;-67
2022/03/25 10:27:22;;;;;;;14.07;6.43;;;;;;;22.00;19.57;100167.84;4218964;34;36019;-66
2022/03/25 10:29:54;;;;;;;8.85;4.32;;;;;;;23.03;19.39;100170.16;4219737;34;34551;-66
2022/03/25 10:32:27;;;;;;;12.82;6.43;;;;;;;23.49;18.68;100157.28;4217930;33;33683;-67
2022/03/25 10:35:06;;;;;;;9.00;4.37;;;;;;;24.25;17.95;100167.50;4219079;33;34808;-67
2022/03/25 10:37:38;;;;;;;9.50;4.55;;;;;;;23.54;18.60;100171.19;4219014;33;36070;-67
2022/03/25 10:40:07;;;;;;;13.62;5.60;;;;;;;23.06;19.05;100178.88;4219084;34;34433;-66
2022/03/25 10:42:36;;;;;;;10.60;5.18;;;;;;;22.61;19.95;100173.97;4218953;33;33934;-67
2022/03/25 10:45:27;;;;;;;20.02;5.45;;;;;;;23.76;18.13;100165.63;4218936;33;34091;-68
2022/03/25 10:48:11;;;;;;;18.58;7.25;;;;;;;23.89;18.32;100171.16;4216887;33;35078;-67
2022/03/25 10:51:08;;;;;;;10.65;5.43;;;;;;;22.77;19.96;100161.69;4219634;34;35099;-68
2022/03/25 10:53:37;;;;;;;;;;;;;;;22.83;19.78;100161.38;4206231;34;34374;-66
2022/03/25 10:56:06;;;;;;;13.57;5.75;;;;;;;24.31;17.90;100156.50;4204734;33;34361;-66
2022/03/25 10:58:35;;;;;;;13.43;6.72;;;;;;;23.78;17.62;100152.25;4218663;34;34362;-67
2022/03/25 11:01:08;;;;;;;19.50;8.00;;;;;;;24.71;17.20;100132.16;4219010;33;34122;-67
2022/03/25 11:03:36;;;;;;;12.05;6.50;;;;;;;23.42;19.41;100145.25;4205932;34;33381;-67
2022/03/25 11:06:05;;;;;;;13.93;6.28;;;;;;;24.12;18.15;100153.13;4205409;34;34087;-66
2022/03/25 11:08:35;;;;;;;17.27;6.72;;;;;;;24.25;17.65;100151.53;4219553;34;35822;-67
2022/03/25 11:11:04;;;;;;;15.32;6.75;;;;;;;24.08;18.26;100138.28;4216011;34;34395;-67
2022/03/25 11:13:32;;;;;;;14.40;7.30;;;;;;;25.31;16.77;100144.72;4229789;33;33474;-68
2022/03/25 11:16:01;;;;;;;15.02;6.32;;;;;;;25.46;16.38;100143.78;4219420;34;33833;-68
2022/03/25 11:18:29;;;;;;;16.33;8.07;;;;;;;26.06;16.84;100137.47;4218840;33;35674;-68
2022/03/25 11:20:58;;;;;;;24.45;7.80;;;;;;;25.09;17.11;100140.59;4218397;34;34571;-67
2022/03/25 11:23:36;;;;;;;20.55;8.52;;;;;;;24.85;18.26;100134.00;4216747;33;33746;-67
2022/03/25 11:26:08;;;;;;;16.87;6.60;;;;;;;24.44;17.37;100130.06;4219595;34;33869;-67
2022/03/25 11:28:37;;;;;;;13.75;7.05;;;;;;;26.98;15.57;100122.69;4217648;33;34673;-67
2022/03/25 11:31:09;;;;;;;17.27;7.00;;;;;;;26.68;16.02;100120.25;4218501;34;35129;-68
2022/03/25 11:34:15;;;;;;;12.65;6.03;;;;;;;27.28;15.78;100118.09;4219347;34;33602;-68
2022/03/25 11:36:43;;;;;;;13.27;7.10;;;;;;;25.71;16.64;100111.16;4217802;33;34794;-68
2022/03/25 11:39:24;;;;;;;10.80;6.50;;;;;;;26.96;15.41;100107.72;4219375;34;35929;-69
2022/03/25 11:42:01;;;;;;;16.55;7.40;;;;;;;27.67;14.31;100103.78;4218684;33;34467;-68
2022/03/25 11:44:30;;;;;;;20.73;6.85;;;;;;;26.40;15.71;100105.13;4218512;33;33355;-68